Time;durP1;ratioP1;P1;durP2;ratioP2;P2;SDS_P1;SDS_P2;PMS_P1;PMS_P2;Temp;Humidity;BMP_temperature;BMP_pressure;BME280_temperature;BME280_humidity;BME280_pressure;Samples;Min_cycle;Max_cycle;Signal;HPM_P1;HPM_P2
2022/10/01 00:00:07;;;;;;;;;;;;;;;7.93;78.06;100103.84;4934592;29;19921;-75
2022/10/01 00:03:13;;;;;;;;;;;;;;;7.91;78.58;100084.88;4934222;29;19961;-75
2022/10/01 00:06:18;;;;;;;;;;;;;;;7.89;78.34;100088.47;4936065;29;19973;-75
2022/10/01 00:09:21;;;;;;;;;;;;;;;7.84;78.82;100080.03;4936520;29;19922;-75
2022/10/01 00:12:24;;;;;;;;;;;;;;;7.94;78.31;100081.25;4935603;29;20389;-75
2022/10/01 00:15:27;;;;;;;;;;;;;;;7.96;77.97;100078.59;4935708;29;19962;-74
2022/10/01 00:18:33;;;;;;;;;;;;;;;7.98;78.27;100069.81;4935900;29;19922;-75
2022/10/01 00:21:36;;;;;;;;;;;;;;;7.82;78.36;100055.84;4923785;29;19970;-74
2022/10/01 00:24:40;;;;;;;;;;;;;;;7.86;78.45;100047.81;4936103;29;19962;-75
2022/10/01 00:27:45;;;;;;;;;;;;;;;7.88;78.22;100040.78;4935610;29;20032;-75
2022/10/01 00:30:48;;;;;;;;;;;;;;;7.93;77.99;100037.94;4935576;29;20061;-75
2022/10/01 00:33:57;;;;;;;;;;;;;;;7.93;78.59;100037.94;4935494;29;19921;-74
2022/10/01 00:37:00;;;;;;;;;;;;;;;7.78;78.52;100043.88;4935257;29;19925;-75
2022/10/01 00:40:05;;;;;;;;;;;;;;;7.97;77.92;100031.66;4935558;29;19970;-74
2022/10/01 00:43:24;;;;;;;;;;;;;;;8.05;77.98;100039.09;4935460;29;19921;-75
2022/10/01 00:46:35;;;;;;;;;;;;;;;8.02;77.88;100024.47;4935498;29;19926;-74
2022/10/01 00:49:39;;;;;;;;;;;;;;;7.95;78.34;100020.50;4935236;29;20427;-74
2022/10/01 00:52:46;;;;;;;;;;;;;;;7.97;78.31;100018.63;4935281;29;20366;-75
2022/10/01 00:55:54;;;;;;;;;;;;;;;8.00;78.11;100010.66;4935512;29;19925;-75
2022/10/01 00:58:57;;;;;;;;;;;;;;;7.89;78.88;100010.38;4935522;29;20009;-74
2022/10/01 01:02:01;;;;;;;;;;;;;;;7.86;79.07;100006.16;4935134;29;19921;-75
2022/10/01 01:05:05;;;;;;;;;;;;;;;7.93;78.90;100006.69;4935225;29;20035;-75
2022/10/01 01:08:09;;;;;;;;;;;;;;;8.00;78.54;100008.06;4935768;29;19926;-74
2022/10/01 01:11:12;;;;;;;;;;;;;;;8.04;78.54;100007.03;4934912;29;19938;-74
2022/10/01 01:14:29;;;;;;;;;;;;;;;7.96;78.82;100005.72;4935190;29;20303;-75
2022/10/01 01:17:36;;;;;;;;;;;;;;;7.94;79.01;100003.16;4935259;29;19978;-75
2022/10/01 01:20:40;;;;;;;;;;;;;;;8.11;78.13;99992.75;4935723;29;19922;-74
2022/10/01 01:23:53;;;;;;;;;;;;;;;8.07;78.86;99995.59;4936963;29;20369;-75
2022/10/01 01:27:15;;;;;;;;;;;;;;;7.92;79.05;99984.19;4935115;29;19929;-75
2022/10/01 01:30:19;;;;;;;;;;;;;;;8.02;79.07;99988.03;4934328;29;20321;-75
2022/10/01 01:33:24;;;;;;;;;;;;;;;7.93;79.22;99986.72;4933524;29;19922;-75
2022/10/01 01:36:31;;;;;;;;;;;;;;;7.89;80.21;99979.13;4934205;29;19926;-75
2022/10/01 01:39:34;;;;;;;;;;;;;;;7.98;79.71;99970.88;4934895;29;19963;-75
2022/10/01 01:42:40;;;;;;;;;;;;;;;7.99;79.64;99967.34;4933893;29;19922;-75
2022/10/01 01:45:44;;;;;;;;;;;;;;;7.82;80.40;99959.56;4934323;29;19921;-75
2022/10/01 01:48:52;;;;;;;;;;;;;;;7.99;79.99;99962.13;4933741;29;19929;-74
2022/10/01 01:52:00;;;;;;;;;;;;;;;8.00;80.27;99950.78;4934008;29;19956;-75
2022/10/01 01:55:06;;;;;;;;;;;;;;;8.18;79.74;99943.81;4934101;29;19970;-74
2022/10/01 01:58:10;;;;;;;;;;;;;;;8.05;80.35;99948.81;4934655;29;20297;-75
2022/10/01 02:01:33;;;;;;;;;;;;;;;8.02;80.85;99933.34;4934556;29;19922;-74
2022/10/01 02:04:40;;;;;;;;;;;;;;;7.85;81.70;99939.41;4934523;29;19963;-75
2022/10/01 02:07:56;;;;;;;;;;;;;;;8.11;81.21;99947.66;4934585;29;19933;-75
2022/10/01 02:11:05;;;;;;;;;;;;;;;7.95;81.31;99936.34;4935127;29;20005;-74
2022/10/01 02:14:23;;;;;;;;;;;;;;;7.93;82.46;99939.00;4934888;29;20322;-75
2022/10/01 02:17:30;;;;;;;;;;;;;;;7.86;83.21;99942.84;4933914;29;19922;-75
2022/10/01 02:20:49;;;;;;;;;;;;;;;8.07;82.85;99944.38;4937912;29;19973;-75
2022/10/01 02:23:52;;;;;;;;;;;;;;;8.16;82.93;99935.22;4938475;29;19922;-75
2022/10/01 02:26:57;;;;;;;;;;;;;;;8.33;82.75;99934.38;4940321;29;19957;-74
2022/10/01 02:30:06;;;;;;;;;;;;;;;8.31;83.28;99934.44;4938295;29;20067;-75
2022/10/01 02:33:12;;;;;;;;;;;;;;;8.35;83.50;99937.72;4937780;29;19922;-75
2022/10/01 02:36:18;;;;;;;;;;;;;;;8.37;83.74;99944.53;4937478;29;19925;-75
2022/10/01 02:39:24;;;;;;;;;;;;;;;8.45;83.63;99940.72;4937791;29;19921;-74
2022/10/01 02:42:28;;;;;;;;;;;;;;;8.63;83.50;99937.13;4938080;29;20385;-75
2022/10/01 02:45:34;;;;;;;;;;;;;;;8.46;84.51;99938.03;4923067;29;20331;-75
2022/10/01 02:48:38;;;;;;;;;;;;;;;8.57;84.40;99937.47;4918987;29;19930;-75
2022/10/01 02:51:44;;;;;;;;;;;;;;;8.53;85.26;99935.94;4919222;29;20386;-75
2022/10/01 02:55:06;;;;;;;;;;;;;;;8.41;85.67;99919.19;4918826;29;19979;-75
2022/10/01 02:58:10;;;;;;;;;;;;;;;8.52;86.51;99919.47;4919171;29;19970;-75
2022/10/01 03:01:13;;;;;;;;;;;;;;;8.73;85.91;99924.44;4918387;29;20427;-74
2022/10/01 03:04:18;;;;;;;;;;;;;;;8.91;85.11;99915.63;4918531;29;19922;-75
2022/10/01 03:07:21;;;;;;;;;;;;;;;8.80;85.97;99912.75;4918036;29;19989;-75
2022/10/01 03:10:24;;;;;;;;;;;;;;;8.81;85.97;99907.47;4919818;29;19978;-75
2022/10/01 03:13:28;;;;;;;;;;;;;;;8.82;86.40;99908.31;4918680;29;19957;-75
2022/10/01 03:16:32;;;;;;;;;;;;;;;8.88;86.94;99894.94;4918559;29;19922;-74
2022/10/01 03:19:35;;;;;;;;;;;;;;;8.97;86.86;99902.25;4918191;29;19922;-74
2022/10/01 03:22:39;;;;;;;;;;;;;;;8.83;87.80;99886.53;4918428;29;19922;-75
2022/10/01 03:25:42;;;;;;;;;;;;;;;8.97;87.80;99891.81;4918567;29;20013;-75
2022/10/01 03:28:46;;;;;;;;;;;;;;;9.06;87.84;99891.31;4918091;29;19925;-75
2022/10/01 03:31:50;;;;;;;;;;;;;;;9.10;87.92;99881.56;4917946;29;20382;-75
2022/10/01 03:34:54;;;;;;;;;;;;;;;9.03;88.44;99886.28;4918267;29;19921;-75
2022/10/01 03:37:58;;;;;;;;;;;;;;;9.15;88.29;99876.06;4917672;29;20022;-74
2022/10/01 03:41:01;;;;;;;;;;;;;;;9.11;89.24;99869.34;4917965;29;19922;-75
2022/10/01 03:44:05;;;;;;;;;;;;;;;9.23;88.58;99866.03;4917800;29;19922;-75
2022/10/01 03:47:09;;;;;;;;;;;;;;;9.26;88.78;99869.31;4917714;29;20101;-75
2022/10/01 03:50:12;;;;;;;;;;;;;;;9.49;88.07;99862.75;4917103;29;20136;-75
2022/10/01 03:53:15;;;;;;;;;;;;;;;9.39;88.48;99860.78;4917918;29;19974;-74
2022/10/01 03:56:19;;;;;;;;;;;;;;;9.39;89.13;99861.63;4917693;29;19971;-75
2022/10/01 03:59:22;;;;;;;;;;;;;;;9.40;89.33;99858.06;4917504;29;20053;-75
2022/10/01 04:02:26;;;;;;;;;;;;;;;9.45;89.69;99850.84;4917600;29;19970;-75
2022/10/01 04:05:29;;;;;;;;;;;;;;;9.40;90.02;99838.97;4917879;29;19969;-74
2022/10/01 04:08:33;;;;;;;;;;;;;;;9.40;90.20;99834.59;4917425;29;19994;-75
2022/10/01 04:11:38;;;;;;;;;;;;;;;9.38;90.96;99813.00;4917756;29;19922;-75
2022/10/01 04:14:41;;;;;;;;;;;;;;;9.46;91.21;99821.19;4917168;29;19937;-74
2022/10/01 04:17:44;;;;;;;;;;;;;;;9.53;91.00;99812.06;4917269;29;19963;-75
2022/10/01 04:20:48;;;;;;;;;;;;;;;9.57;90.88;99801.44;4917249;29;19922;-75
2022/10/01 04:23:52;;;;;;;;;;;;;;;9.49;91.62;99794.91;4917144;29;20294;-74
2022/10/01 04:26:55;;;;;;;;;;;;;;;9.58;91.60;99801.34;4917067;29;19926;-75
2022/10/01 04:29:58;;;;;;;;;;;;;;;9.65;91.24;99805.28;4917197;29;19925;-75
2022/10/01 04:33:03;;;;;;;;;;;;;;;9.65;91.37;99788.78;4917387;29;19922;-75
2022/10/01 04:36:06;;;;;;;;;;;;;;;9.59;91.90;99794.38;4917479;29;19927;-75
2022/10/01 04:39:09;;;;;;;;;;;;;;;9.49;92.47;99807.13;4899798;29;19942;-74
2022/10/01 04:42:14;;;;;;;;;;;;;;;9.57;91.35;99817.09;4898682;29;20315;-75
2022/10/01 04:45:17;;;;;;;;;;;;;;;9.62;91.02;99807.22;4898723;29;20415;-74
2022/10/01 04:48:21;;;;;;;;;;;;;;;9.68;91.17;99806.88;4898747;29;19927;-74
2022/10/01 04:51:24;;;;;;;;;;;;;;;9.68;91.67;99805.09;4898052;29;19923;-74
2022/10/01 04:54:28;;;;;;;;;;;;;;;9.66;92.44;99796.50;4897143;29;19966;-74
2022/10/01 04:57:31;;;;;;;;;;;;;;;9.67;91.46;99786.94;4897652;29;19922;-74
2022/10/01 05:00:35;;;;;;;;;;;;;;;9.86;90.70;99797.06;4897930;29;19961;-74
2022/10/01 05:03:38;;;;;;;;;;;;;;;9.83;90.36;99808.56;4897920;29;20059;-74
2022/10/01 05:06:42;;;;;;;;;;;;;;;9.95;90.47;99791.28;4897735;29;19926;-75
2022/10/01 05:09:45;;;;;;;;;;;;;;;9.69;92.59;99796.31;4897963;29;20398;-75
2022/10/01 05:12:50;;;;;;;;;;;;;;;9.83;92.40;99785.06;4897774;29;20292;-74
2022/10/01 05:15:53;;;;;;;;;;;;;;;9.89;92.13;99766.41;4897910;29;19971;-74
2022/10/01 05:18:57;;;;;;;;;;;;;;;9.99;92.21;99751.84;4897783;29;19921;-74
2022/10/01 05:22:01;;;;;;;;;;;;;;;9.83;93.12;99747.66;4897448;29;20072;-75
2022/10/01 05:25:05;;;;;;;;;;;;;;;9.81;93.54;99745.16;4897652;29;19921;-74
2022/10/01 05:28:09;;;;;;;;;;;;;;;9.78;93.95;99758.38;4897743;29;19967;-74
2022/10/01 05:31:13;;;;;;;;;;;;;;;9.90;91.94;99760.25;4897509;29;20474;-74
2022/10/01 05:34:17;;;;;;;;;;;;;;;9.97;92.28;99748.47;4897894;29;19971;-74
2022/10/01 05:37:20;;;;;;;;;;;;;;;9.90;92.95;99755.03;4911384;29;20047;-74
2022/10/01 05:40:26;;;;;;;;;;;;;;;9.86;93.41;99745.72;4916245;29;20393;-74
2022/10/01 05:43:30;;;;;;;;;;;;;;;9.87;93.09;99747.38;4912365;29;19922;-75
2022/10/01 05:46:33;;;;;;;;;;;;;;;9.95;92.50;99750.34;4914588;29;19974;-75
2022/10/01 05:49:41;;;;;;;;;;;;;;;9.91;93.27;99733.19;4912516;29;19922;-74
2022/10/01 05:52:51;;;;;;;;;;;;;;;9.98;91.97;99733.66;4912871;29;19970;-75
2022/10/01 05:55:54;;;;;;;;;;;;;;;10.00;90.32;99740.47;4916526;29;19921;-75
2022/10/01 05:58:58;;;;;;;;;;;;;;;10.13;89.82;99740.53;4916795;29;20302;-75
2022/10/01 06:02:03;;;;;;;;;;;;;;;10.16;90.49;99747.34;4918138;29;19938;-76
2022/10/01 06:05:12;;;;;;;;;;;;;;;10.10;91.12;99732.88;4897566;29;19922;-75
2022/10/01 06:08:20;;;;;;;;;;;;;;;10.21;90.35;99734.81;4900154;29;19945;-74
2022/10/01 06:11:25;;;;;;;;;;;;;;;10.21;89.96;99716.50;4915026;29;19998;-75
2022/10/01 06:14:29;;;;;;;;;;;;;;;10.14;91.31;99729.13;4895794;29;19922;-76
2022/10/01 06:17:33;;;;;;;;;;;;;;;10.29;91.96;99714.31;4556079;29;10001318;-75
2022/10/01 06:20:37;;;;;;;;;;;;;;;10.31;89.15;99735.13;4895986;29;19969;-75
2022/10/01 06:24:07;;;;;;;;;;;;;;;10.33;89.90;99725.38;4913998;29;20011;-75
2022/10/01 06:27:11;;;;;;;;;;;;;;;10.30;91.65;99725.59;4913523;29;20127;-75
2022/10/01 06:30:16;;;;;;;;;;;;;;;10.28;90.02;99707.41;4914620;29;19926;-75
2022/10/01 06:33:21;;;;;;;;;;;;;;;10.37;89.95;99709.44;4926388;29;20369;-76
2022/10/01 06:36:27;;;;;;;;;;;;;;;10.43;91.29;99724.72;4933236;29;19926;-76
2022/10/01 06:39:31;;;;;;;;;;;;;;;10.46;91.71;99724.53;4928035;29;19922;-76
2022/10/01 06:42:34;;;;;;;;;;;;;;;10.37;93.21;99719.88;4914418;29;20045;-75
2022/10/01 06:45:39;;;;;;;;;;;;;;;10.33;92.48;99733.22;4914997;29;19966;-74
2022/10/01 06:48:43;;;;;;;;;;;;;;;10.40;93.46;99730.16;4914497;29;19971;-74
2022/10/01 06:55:09;;;;;;;;;;;;;;;10.32;90.82;99719.34;4914328;29;20077;-76
2022/10/01 06:58:14;;;;;;;;;;;;;;;10.43;90.90;99705.56;4915024;29;19925;-76
2022/10/01 07:01:19;;;;;;;;;;;;;;;10.48;90.94;99712.19;4914515;29;19966;-75
2022/10/01 07:04:26;;;;;;;;;;;;;;;10.52;89.06;99709.38;4917829;29;19981;-76
2022/10/01 07:07:34;;;;;;;;;;;;;;;10.53;90.62;99722.34;4932135;29;20402;-76
2022/10/01 07:10:38;;;;;;;;;;;;;;;10.47;92.26;99700.06;4918159;29;20327;-76
2022/10/01 07:13:41;;;;;;;;;;;;;;;10.45;89.40;99691.47;4914540;29;20010;-75
2022/10/01 07:16:45;;;;;;;;;;;;;;;10.57;89.71;99674.16;4915631;29;19955;-75
2022/10/01 07:19:48;;;;;;;;;;;;;;;10.53;89.23;99692.72;4914501;29;20329;-75
2022/10/01 07:22:56;;;;;;;;;;;;;;;10.54;88.97;99708.34;4914158;29;20286;-75
2022/10/01 07:25:59;;;;;;;;;;;;;;;10.54;89.57;99705.72;4913601;29;19918;-75
2022/10/01 07:29:03;;;;;;;;;;;;;;;10.58;90.08;99706.34;4573704;29;9999939;-75
2022/10/01 07:32:09;;;;;;;;;;;;;;;10.57;88.66;99704.69;4932305;29;19965;-75
2022/10/01 07:35:13;;;;;;;;;;;;;;;10.62;88.69;99702.59;4918648;29;20279;-75
2022/10/01 07:38:20;;;;;;;;;;;;;;;10.64;88.50;99709.41;4912792;29;19974;-74
2022/10/01 07:41:28;;;;;;;;;;;;;;;10.67;88.37;99708.38;4913511;29;20055;-75
2022/10/01 07:44:33;;;;;;;;;;;;;;;10.71;88.28;99705.44;4914316;29;19922;-75
2022/10/01 07:47:36;;;;;;;;;;;;;;;10.73;88.99;99715.81;4913501;29;19926;-74
2022/10/01 07:50:42;;;;;;;;;;;;;;;10.82;88.69;99704.75;4913797;29;19926;-75
2022/10/01 07:53:45;;;;;;;;;;;;;;;10.81;88.22;99697.00;4912633;29;19919;-75
2022/10/01 07:56:50;;;;;;;;;;;;;;;10.83;88.48;99688.09;4914195;29;20326;-75
2022/10/01 07:59:54;;;;;;;;;;;;;;;10.86;88.08;99706.22;4914346;29;20014;-75
2022/10/01 08:02:58;;;;;;;;;;;;;;;10.88;88.11;99708.72;4914287;29;19979;-75
2022/10/01 08:06:08;;;;;;;;;;;;;;;10.88;87.72;99706.97;4914674;29;20378;-75
2022/10/01 08:09:11;;;;;;;;;;;;;;;10.91;88.09;99703.28;4904098;29;19925;-75
2022/10/01 08:12:16;;;;;;;;;;;;;;;10.92;87.57;99729.34;4573818;29;9999661;-75
2022/10/01 08:15:20;;;;;;;;;;;;;;;10.99;88.04;99721.09;4567556;29;9999686;-75
2022/10/01 08:18:23;;;;;;;;;;;;;;;11.00;87.78;99728.81;4914782;29;20529;-75
2022/10/01 08:21:27;;;;;;;;;;;;;;;11.06;87.01;99722.34;4913940;29;20416;-74
2022/10/01 08:24:30;;;;;;;;;;;;;;;11.17;86.90;99710.22;4913933;29;20275;-74
2022/10/01 08:27:34;;;;;;;;;;;;;;;11.22;88.07;99723.00;4914094;29;19925;-75
2022/10/01 08:30:39;;;;;;;;;;;;;;;11.35;86.94;99715.97;4914754;29;20302;-74
2022/10/01 08:33:43;;;;;;;;;;;;;;;11.41;86.94;99718.19;4916040;29;20017;-74
2022/10/01 08:36:50;;;;;;;;;;;;;;;11.48;86.65;99717.75;4910780;29;19974;-75
2022/10/01 08:39:54;;;;;;;;;;;;;;;11.55;89.11;99713.75;4914687;29;19922;-75
2022/10/01 08:43:01;;;;;;;;;;;;;;;11.49;90.15;99722.06;4913893;29;19934;-75
2022/10/01 08:46:19;;;;;;;;;;;;;;;11.50;87.98;99721.94;4913132;29;20088;-75
2022/10/01 08:49:33;;;;;;;;;;;;;;;11.58;87.01;99724.03;4901840;29;19943;-75
2022/10/01 08:52:42;;;;;;;;;;;;;;;11.63;87.58;99737.66;4912996;29;19922;-74
2022/10/01 08:55:49;;;;;;;;;;;;;;;11.60;87.27;99748.34;4913037;29;20334;-74
2022/10/01 08:58:57;;;;;;;;;;;;;;;11.70;87.22;99754.59;4913305;29;19970;-74
2022/10/01 09:02:09;;;;;;;;;;;;;;;11.67;87.23;99749.56;4912415;29;19922;-75
2022/10/01 09:05:46;;;;;;;;;;;;;;;11.68;85.69;99748.66;4911873;29;19958;-74
2022/10/01 09:09:01;;;;;;;;;;;;;;;11.69;87.18;99745.09;4890027;29;19926;-75
2022/10/01 09:12:09;;;;;;;;;;;;;;;11.76;86.42;99758.59;4912086;29;19922;-74
2022/10/01 09:15:20;;;;;;;;;;;;;;;11.81;85.64;99756.50;4902419;29;20323;-74
2022/10/01 09:19:01;;;;;;;;;;;;;;;11.80;85.63;99745.16;4897841;29;20270;-74
2022/10/01 09:22:12;;;;;;;;;;;;;;;11.82;87.21;99752.94;4854187;29;19976;-75
2022/10/01 09:25:21;;;;;;;;;;;;;;;11.84;86.32;99757.16;4855346;29;19922;-75
2022/10/01 09:28:33;;;;;;;;;;;;;;;11.91;87.20;99756.72;4894412;29;20291;-75
2022/10/01 09:31:40;;;;;;;;;;;;;;;12.05;87.61;99764.44;4897325;29;20018;-75
2022/10/01 09:34:44;;;;;;;;;;;;;;;12.11;86.50;99750.91;4885461;29;20311;-75
2022/10/01 09:37:52;;;;;;;;;;;;;;;12.23;85.63;99744.78;4918097;29;19950;-74
2022/10/01 09:40:56;;;;;;;;;;;;;;;12.32;85.96;99740.69;4917157;29;19969;-74
2022/10/01 09:44:00;;;;;;;;;;;;;;;12.27;85.97;99748.03;4917264;29;20413;-75
2022/10/01 09:47:15;;;;;;;;;;;;;;;12.25;86.60;99753.41;4915551;29;19930;-74
2022/10/01 09:50:29;;;;;;;;;;;;;;;12.19;87.03;99753.84;4915853;29;20444;-74
2022/10/01 09:53:35;;;;;;;;;;;;;;;12.14;87.46;99763.78;4916472;29;19922;-74
2022/10/01 09:57:06;;;;;;;;;;;;;;;12.17;87.45;99763.56;4904813;29;19995;-74
2022/10/01 10:00:14;;;;;;;;;;;;;;;12.20;87.50;99767.78;4898289;29;19923;-74
2022/10/01 10:03:22;;;;;;;;;;;;;;;12.19;87.17;99755.59;4917163;29;19970;-74
2022/10/01 10:06:27;;;;;;;;;;;;;;;12.18;87.31;99756.56;4916473;29;19969;-75
2022/10/01 10:09:32;;;;;;;;;;;;;;;12.22;88.59;99771.97;4917120;29;19930;-74
2022/10/01 10:12:35;;;;;;;;;;;;;;;12.30;87.73;99774.03;4916690;29;20026;-75
2022/10/01 10:15:52;;;;;;;;;;;;;;;12.29;88.73;99780.22;4913648;29;19979;-75
2022/10/01 10:18:57;;;;;;;;;;;;;;;12.32;89.12;99780.00;4897830;29;19927;-75
2022/10/01 10:22:11;;;;;;;;;;;;;;;12.38;91.06;99776.09;4895699;29;19980;-75
2022/10/01 10:25:22;;;;;;;;;;;;;;;12.41;90.97;99774.13;4895956;29;19925;-74
2022/10/01 10:28:27;;;;;;;;;;;;;;;12.42;91.34;99780.19;4895748;29;19973;-74
2022/10/01 10:31:38;;;;;;;;;;;;;;;12.46;91.80;99779.00;4911362;29;19963;-74
2022/10/01 10:34:45;;;;;;;;;;;;;;;12.54;91.94;99782.75;4914938;29;19922;-74
2022/10/01 10:37:51;;;;;;;;;;;;;;;12.64;91.54;99776.84;4905792;29;19926;-74
2022/10/01 10:40:54;;;;;;;;;;;;;;;12.62;91.53;99784.81;4915475;29;20366;-74
2022/10/01 10:43:59;;;;;;;;;;;;;;;12.62;94.54;99782.19;4912841;29;20451;-74
2022/10/01 10:47:05;;;;;;;;;;;;;;;12.79;92.62;99786.22;4895886;29;19926;-74
2022/10/01 10:50:20;;;;;;;;;;;;;;;12.87;91.88;99783.03;4894798;29;19961;-76
2022/10/01 10:53:32;;;;;;;;;;;;;;;12.90;92.00;99782.81;4895061;29;19923;-76
2022/10/01 10:56:37;;;;;;;;;;;;;;;13.12;91.75;99788.13;4895554;29;19918;-76
2022/10/01 10:59:40;;;;;;;;;;;;;;;13.25;91.37;99793.34;4894341;29;19922;-76
2022/10/01 11:02:50;;;;;;;;;;;;;;;13.31;90.36;99784.19;4895684;29;19923;-76
2022/10/01 11:05:58;;;;;;;;;;;;;;;13.33;89.94;99795.38;4895638;29;19923;-76
2022/10/01 11:09:06;;;;;;;;;;;;;;;13.44;89.19;99791.00;4897048;29;19929;-76
2022/10/01 11:12:19;;;;;;;;;;;;;;;13.60;89.88;99781.97;4897461;29;19939;-76
2022/10/01 11:15:43;;;;;;;;;;;;;;;13.74;87.71;99781.72;4877026;29;19922;-76
2022/10/01 11:19:14;;;;;;;;;;;;;;;13.80;85.91;99773.38;4876491;29;20335;-75
2022/10/01 11:22:17;;;;;;;;;;;;;;;13.90;85.68;99784.00;4883628;29;20019;-76
2022/10/01 11:25:36;;;;;;;;;;;;;;;14.03;83.81;99778.63;4895043;29;19959;-75
2022/10/01 11:28:47;;;;;;;;;;;;;;;14.08;84.34;99779.94;4892612;29;20706;-75
2022/10/01 11:32:09;;;;;;;;;;;;;;;14.14;83.66;99791.78;4894923;29;20390;-75
2022/10/01 11:35:24;;;;;;;;;;;;;;;14.33;80.60;99786.72;4895120;29;19921;-75
2022/10/01 11:38:45;;;;;;;;;;;;;;;14.31;81.51;99783.38;4908579;29;20377;-76
2022/10/01 11:41:52;;;;;;;;;;;;;;;14.39;80.15;99785.41;4912488;29;19922;-75
2022/10/01 11:45:03;;;;;;;;;;;;;;;14.51;79.79;99794.13;4913242;29;20402;-75
2022/10/01 11:48:13;;;;;;;;;;;;;;;14.67;80.21;99789.28;4913508;29;20374;-75
2022/10/01 11:51:21;;;;;;;;;;;;;;;14.91;77.65;99775.94;4911863;29;19947;-75
2022/10/01 11:54:27;;;;;;;;;;;;;;;14.94;76.44;99765.16;4913211;29;19922;-75
2022/10/01 12:00:57;;;;;;;;;;;;;;;15.08;74.96;99778.00;4913141;29;20414;-75
2022/10/01 12:04:05;;;;;;;;;;;;;;;15.38;74.98;99779.06;4913927;29;20377;-76
2022/10/01 12:07:22;;;;;;;;;;;;;;;15.59;73.56;99782.50;4912979;29;19926;-75
2022/10/01 12:10:37;;;;;;;;;;;;;;;15.76;73.27;99761.78;4911898;29;19962;-78
2022/10/01 12:13:44;;;;;;;;;;;;;;;16.11;72.84;99760.53;4912288;29;20382;-77
2022/10/01 12:16:56;;;;;;;;;;;;;;;15.87;72.30;99759.06;4901884;29;20426;-78
2022/10/01 12:20:00;;;;;;;;;;;;;;;15.89;73.54;99772.97;4894080;29;20023;-77
2022/10/01 12:23:06;;;;;;;;;;;;;;;16.10;70.93;99777.34;4894313;29;19918;-77
2022/10/01 12:26:33;;;;;;;;;;;;;;;16.04;70.15;99782.16;4912926;29;19931;-76
2022/10/01 12:29:43;;;;;;;;;;;;;;;16.08;70.31;99756.41;4913462;29;20329;-76
2022/10/01 12:32:52;;;;;;;;;;;;;;;16.02;70.38;99765.66;4913901;29;19926;-76
2022/10/01 12:36:10;;;;;;;;;;;;;;;15.90;70.94;99768.53;4914547;29;20429;-76
2022/10/01 12:39:14;;;;;;;;;;;;;;;15.92;70.85;99772.72;4912951;29;19922;-76
2022/10/01 12:42:37;;;;;;;;;;;;;;;16.85;68.37;99760.97;4914064;29;19967;-79
2022/10/01 12:45:44;;;;;;;;;;;;;;;16.96;66.34;99776.66;4913121;29;19950;-74
2022/10/01 12:48:53;;;;;;;;;;;;;;;16.60;67.27;99769.41;4901473;29;19967;-75
2022/10/01 12:52:12;;;;;;;;;;;;;;;16.16;68.35;99782.09;4913126;29;19921;-75
2022/10/01 12:55:22;;;;;;;;;;;;;;;16.17;69.17;99776.66;4894247;29;20355;-75
2022/10/01 12:58:43;;;;;;;;;;;;;;;16.11;69.65;99771.91;4895726;29;19922;-75
2022/10/01 13:02:12;;;;;;;;;;;;;;;16.07;69.38;99793.44;4897534;29;20010;-74
2022/10/01 13:05:29;;;;;;;;;;;;;;;16.11;69.76;99794.81;4898016;29;20283;-74
2022/10/01 13:08:47;;;;;;;;;;;;;;;16.51;68.03;99790.34;4885880;29;19926;-74
2022/10/01 13:11:58;;;;;;;;;;;;;;;17.03;66.30;99778.75;4913647;29;19922;-75
2022/10/01 13:15:03;;;;;;;;;;;;;;;17.41;64.33;99789.28;4916351;29;19923;-75
2022/10/01 13:18:25;;;;;;;;;;;;;;;17.50;64.46;99792.06;4916468;29;19937;-75
2022/10/01 13:21:32;;;;;;;;;;;;;;;17.31;63.91;99788.47;4914952;29;19974;-75
2022/10/01 13:24:42;;;;;;;;;;;;;;;17.58;63.17;99787.72;4915841;29;19973;-75
2022/10/01 13:27:50;;;;;;;;;;;;;;;17.70;63.38;99777.78;4916156;29;19966;-75
2022/10/01 13:30:53;;;;;;;;;;;;;;;17.31;63.87;99791.09;4917545;29;19965;-75
2022/10/01 13:34:23;;;;;;;;;;;;;;;17.07;65.75;99795.97;4929613;29;19922;-75
2022/10/01 13:37:29;;;;;;;;;;;;;;;17.80;64.17;99809.53;4920735;29;20415;-75
2022/10/01 13:40:33;;;;;;;;;;;;;;;17.88;62.86;99813.13;4916549;29;19969;-75
2022/10/01 13:43:36;;;;;;;;;;;;;;;18.09;62.38;99812.91;4916219;29;20382;-75
2022/10/01 13:46:49;;;;;;;;;;;;;;;18.08;61.51;99802.47;4916164;29;19925;-75
2022/10/01 13:49:53;;;;;;;;;;;;;;;18.32;61.37;99812.53;4916303;29;20374;-75
2022/10/01 13:53:12;;;;;;;;;;;;;;;18.51;60.97;99816.88;4916360;29;19931;-75
2022/10/01 13:56:30;;;;;;;;;;;;;;;18.74;60.53;99807.56;4916438;29;19982;-75
2022/10/01 13:59:35;;;;;;;;;;;;;;;18.70;60.17;99822.06;4915512;29;19961;-75
2022/10/01 14:02:40;;;;;;;;;;;;;;;18.60;60.18;99829.19;4916132;29;19922;-75
2022/10/01 14:05:44;;;;;;;;;;;;;;;18.27;60.73;99822.72;4916390;29;19962;-75
2022/10/01 14:09:02;;;;;;;;;;;;;;;18.34;60.97;99834.38;4916378;29;19926;-75
2022/10/01 14:15:58;;;;;;;;;;;;;;;18.36;61.72;99843.84;4912670;29;19922;-75
2022/10/01 14:19:02;;;;;;;;;;;;;;;18.18;62.12;99842.94;4919498;29;20011;-76
2022/10/01 14:22:06;;;;;;;;;;;;;;;18.20;62.41;99848.09;4919482;29;19926;-75
2022/10/01 14:25:21;;;;;;;;;;;;;;;18.10;62.56;99842.84;4918697;29;19922;-75
2022/10/01 14:28:48;;;;;;;;;;;;;;;17.98;62.56;99854.56;4919366;29;19934;-75
2022/10/01 14:32:01;;;;;;;;;;;;;;;18.19;62.50;99863.16;4919352;29;19921;-75
2022/10/01 14:35:08;;;;;;;;;;;;;;;18.01;63.16;99859.59;4919121;29;19921;-76
2022/10/01 14:38:18;;;;;;;;;;;;;;;17.69;64.37;99866.03;4900569;29;19961;-75
2022/10/01 14:41:22;;;;;;;;;;;;;;;17.56;64.95;99860.22;4900527;29;19966;-76
2022/10/01 14:44:35;;;;;;;;;;;;;;;17.94;63.88;99880.47;4902364;29;19937;-75
2022/10/01 14:47:39;;;;;;;;;;;;;;;17.63;65.00;99866.59;4900310;29;19926;-75
2022/10/01 14:50:45;;;;;;;;;;;;;;;17.16;66.76;99874.41;4899939;29;19965;-75
2022/10/01 14:53:49;;;;;;;;;;;;;;;17.06;67.63;99882.31;4900003;29;20327;-75
2022/10/01 14:56:53;;;;;;;;;;;;;;;16.96;68.36;99886.75;4900045;29;19922;-75
2022/10/01 14:59:59;;;;;;;;;;;;;;;16.89;68.93;99880.34;4900023;29;19922;-76
2022/10/01 15:03:08;;;;;;;;;;;;;;;16.84;69.06;99886.03;4899967;29;20172;-76
2022/10/01 15:06:16;;;;;;;;;;;;;;;16.87;69.31;99885.75;4899971;29;20329;-76
2022/10/01 15:09:19;;;;;;;;;;;;;;;16.75;69.53;99889.47;4900372;29;20390;-75
2022/10/01 15:12:24;;;;;;;;;;;;;;;16.80;69.57;99895.19;4900154;29;19941;-75
2022/10/01 15:15:32;;;;;;;;;;;;;;;16.77;69.33;99905.19;4900466;29;19971;-75
2022/10/01 15:18:35;;;;;;;;;;;;;;;16.69;70.37;99903.22;4900093;29;20406;-75
2022/10/01 15:21:44;;;;;;;;;;;;;;;16.59;71.17;99912.88;4899709;29;19963;-75
2022/10/01 15:24:48;;;;;;;;;;;;;;;16.50;71.19;99918.00;4899274;29;19938;-75
2022/10/01 15:27:53;;;;;;;;;;;;;;;16.33;71.15;99929.16;4899101;29;20279;-74
2022/10/01 15:31:00;;;;;;;;;;;;;;;16.27;71.05;99927.03;4899441;29;19922;-74
2022/10/01 15:34:04;;;;;;;;;;;;;;;16.19;71.32;99926.88;4899345;29;19986;-74
2022/10/01 15:37:12;;;;;;;;;;;;;;;16.18;70.99;99936.59;4911422;29;19926;-74
2022/10/01 15:40:20;;;;;;;;;;;;;;;16.10;71.34;99932.94;4918152;29;19921;-74
2022/10/01 15:43:30;;;;;;;;;;;;;;;16.07;71.39;99954.28;4917895;29;19922;-74
2022/10/01 15:46:33;;;;;;;;;;;;;;;15.93;72.16;99953.66;4917817;29;20075;-74
2022/10/01 15:49:36;;;;;;;;;;;;;;;15.90;72.16;99951.28;4917642;29;20335;-74
2022/10/01 15:52:49;;;;;;;;;;;;;;;15.89;72.19;99956.66;4917743;29;20027;-74
2022/10/01 15:55:58;;;;;;;;;;;;;;;15.85;73.02;99966.63;4918063;29;20385;-74
2022/10/01 15:59:11;;;;;;;;;;;;;;;15.86;74.12;99994.69;4917497;29;19922;-74
2022/10/01 16:02:18;;;;;;;;;;;;;;;15.66;75.31;100008.63;4917149;29;19926;-74
2022/10/01 16:05:25;;;;;;;;;;;;;;;15.26;79.96;100009.22;4917959;29;19979;-74
2022/10/01 16:08:47;;;;;;;;;;;;;;;15.27;81.05;100010.88;4917612;29;20029;-74
2022/10/01 16:11:50;;;;;;;;;;;;;;;15.33;82.90;100008.59;4917703;29;20013;-74
2022/10/01 16:14:58;;;;;;;;;;;;;;;15.30;83.27;100013.28;4917822;29;20002;-74
2022/10/01 16:18:01;;;;;;;;;;;;;;;15.23;85.31;100022.63;4917301;29;19943;-74
2022/10/01 16:21:07;;;;;;;;;;;;;;;15.10;86.24;100028.88;4917642;29;19921;-74
2022/10/01 16:24:28;;;;;;;;;;;;;;;14.98;87.21;100029.00;4917736;29;19926;-74
2022/10/01 16:28:06;;;;;;;;;;;;;;;14.86;88.30;100033.41;4917226;29;19942;-74